sensor_id;sensor_type;location;lat;lon;timestamp;pressure;altitude;pressure_sealevel;temperature;humidity
22255;BME280;11296;42.684;23.322;2023-02-11T00:00:15;96879.19;;;-2.51;100.00
22255;BME280;11296;42.684;23.322;2023-02-11T00:02:41;96854.53;;;-2.74;100.00
22255;BME280;11296;42.684;23.322;2023-02-11T00:05:07;96903.44;;;-2.45;100.00
22255;BME280;11296;42.684;23.322;2023-02-11T00:07:35;96880.75;;;-2.50;100.00
22255;BME280;11296;42.684;23.322;2023-02-11T00:10:03;96850.97;;;-2.66;100.00
22255;BME280;11296;42.684;23.322;2023-02-11T00:12:30;96903.53;;;-2.42;100.00
22255;BME280;11296;42.684;23.322;2023-02-11T00:14:56;96837.78;;;-2.81;100.00
22255;BME280;11296;42.684;23.322;2023-02-11T00:17:22;96932.19;;;-2.25;100.00
22255;BME280;11296;42.684;23.322;2023-02-11T00:19:49;96873.25;;;-2.63;100.00
22255;BME280;11296;42.684;23.322;2023-02-11T00:22:17;96886.41;;;-2.63;100.00
22255;BME280;11296;42.684;23.322;2023-02-11T00:24:43;96951.66;;;-2.29;100.00
22255;BME280;11296;42.684;23.322;2023-02-11T00:27:12;96865.72;;;-2.77;100.00
22255;BME280;11296;42.684;23.322;2023-02-11T00:29:38;96836.22;;;-2.98;100.00
22255;BME280;11296;42.684;23.322;2023-02-11T00:32:06;96921.06;;;-2.34;100.00
22255;BME280;11296;42.684;23.322;2023-02-11T00:34:36;96862.59;;;-2.82;100.00
22255;BME280;11296;42.684;23.322;2023-02-11T00:37:03;96894.22;;;-2.67;100.00
22255;BME280;11296;42.684;23.322;2023-02-11T00:39:29;96887.66;;;-2.73;100.00
22255;BME280;11296;42.684;23.322;2023-02-11T00:41:57;96897.25;;;-2.80;100.00
22255;BME280;11296;42.684;23.322;2023-02-11T00:44:27;96869.72;;;-2.83;100.00
22255;BME280;11296;42.684;23.322;2023-02-11T00:46:53;96850.97;;;-3.09;100.00
22255;BME280;11296;42.684;23.322;2023-02-11T00:49:20;96868.00;;;-2.91;100.00
22255;BME280;11296;42.684;23.322;2023-02-11T00:51:47;96872.81;;;-2.93;100.00
22255;BME280;11296;42.684;23.322;2023-02-11T00:54:13;96899.63;;;-2.75;100.00
22255;BME280;11296;42.684;23.322;2023-02-11T00:56:38;96879.81;;;-2.85;100.00
22255;BME280;11296;42.684;23.322;2023-02-11T00:59:07;96834.34;;;-3.25;100.00
22255;BME280;11296;42.684;23.322;2023-02-11T01:01:35;96844.72;;;-3.17;100.00
22255;BME280;11296;42.684;23.322;2023-02-11T01:04:04;96880.06;;;-2.90;100.00
22255;BME280;11296;42.684;23.322;2023-02-11T01:06:32;96878.38;;;-3.10;100.00
22255;BME280;11296;42.684;23.322;2023-02-11T01:08:57;96877.91;;;-3.00;100.00
22255;BME280;11296;42.684;23.322;2023-02-11T01:11:25;96871.16;;;-3.13;100.00
22255;BME280;11296;42.684;23.322;2023-02-11T01:13:52;96889.94;;;-2.99;100.00
22255;BME280;11296;42.684;23.322;2023-02-11T01:16:19;96875.44;;;-2.93;100.00
22255;BME280;11296;42.684;23.322;2023-02-11T01:18:46;96858.09;;;-3.10;100.00
22255;BME280;11296;42.684;23.322;2023-02-11T01:21:18;96855.19;;;-3.32;100.00
22255;BME280;11296;42.684;23.322;2023-02-11T01:23:45;96874.84;;;-3.02;100.00
22255;BME280;11296;42.684;23.322;2023-02-11T01:26:10;96863.25;;;-3.13;100.00
22255;BME280;11296;42.684;23.322;2023-02-11T01:28:41;96828.66;;;-3.27;100.00
22255;BME280;11296;42.684;23.322;2023-02-11T01:31:09;96820.47;;;-3.38;100.00
22255;BME280;11296;42.684;23.322;2023-02-11T01:33:36;96870.66;;;-3.03;100.00
22255;BME280;11296;42.684;23.322;2023-02-11T01:36:11;96909.50;;;-3.00;100.00
22255;BME280;11296;42.684;23.322;2023-02-11T01:38:40;96832.44;;;-3.52;100.00
22255;BME280;11296;42.684;23.322;2023-02-11T01:41:11;96850.19;;;-3.49;100.00
22255;BME280;11296;42.684;23.322;2023-02-11T01:43:40;96837.25;;;-3.42;100.00
22255;BME280;11296;42.684;23.322;2023-02-11T01:49:18;96863.50;;;-3.18;100.00
22255;BME280;11296;42.684;23.322;2023-02-11T01:51:50;96814.72;;;-3.55;100.00
22255;BME280;11296;42.684;23.322;2023-02-11T01:54:23;96861.78;;;-3.38;100.00
22255;BME280;11296;42.684;23.322;2023-02-11T01:57:12;96850.28;;;-3.46;100.00
22255;BME280;11296;42.684;23.322;2023-02-11T02:00:00;96891.53;;;-3.10;100.00
22255;BME280;11296;42.684;23.322;2023-02-11T02:02:59;96887.94;;;-3.18;100.00
22255;BME280;11296;42.684;23.322;2023-02-11T02:05:47;96892.09;;;-3.17;100.00
22255;BME280;11296;42.684;23.322;2023-02-11T02:08:52;96836.81;;;-3.44;100.00
22255;BME280;11296;42.684;23.322;2023-02-11T02:11:25;96862.22;;;-3.36;100.00
22255;BME280;11296;42.684;23.322;2023-02-11T02:14:07;96866.91;;;-3.30;100.00
22255;BME280;11296;42.684;23.322;2023-02-11T02:16:38;96852.59;;;-3.44;100.00
22255;BME280;11296;42.684;23.322;2023-02-11T02:19:30;96879.94;;;-3.21;100.00
22255;BME280;11296;42.684;23.322;2023-02-11T02:22:31;96880.28;;;-3.23;100.00
22255;BME280;11296;42.684;23.322;2023-02-11T02:25:29;96840.81;;;-3.62;100.00
22255;BME280;11296;42.684;23.322;2023-02-11T02:28:34;96883.47;;;-3.29;100.00
22255;BME280;11296;42.684;23.322;2023-02-11T02:34:07;96862.47;;;-3.53;100.00
22255;BME280;11296;42.684;23.322;2023-02-11T02:36:54;96813.91;;;-3.84;100.00
22255;BME280;11296;42.684;23.322;2023-02-11T02:39:29;96852.22;;;-3.83;100.00
22255;BME280;11296;42.684;23.322;2023-02-11T02:41:56;96825.16;;;-3.83;100.00
22255;BME280;11296;42.684;23.322;2023-02-11T02:44:25;96835.13;;;-3.77;100.00
22255;BME280;11296;42.684;23.322;2023-02-11T02:46:54;96849.38;;;-3.78;100.00
22255;BME280;11296;42.684;23.322;2023-02-11T02:49:22;96807.13;;;-3.97;100.00
22255;BME280;11296;42.684;23.322;2023-02-11T02:52:00;96882.63;;;-3.45;100.00
22255;BME280;11296;42.684;23.322;2023-02-11T03:03:43;96889.69;;;-3.61;100.00
22255;BME280;11296;42.684;23.322;2023-02-11T03:13:01;96824.75;;;-4.09;100.00
22255;BME280;11296;42.684;23.322;2023-02-11T03:15:41;96820.16;;;-4.12;100.00
22255;BME280;11296;42.684;23.322;2023-02-11T03:18:12;96839.63;;;-4.13;100.00
22255;BME280;11296;42.684;23.322;2023-02-11T03:20:44;96837.13;;;-3.98;100.00
22255;BME280;11296;42.684;23.322;2023-02-11T03:23:46;96871.47;;;-3.79;100.00
22255;BME280;11296;42.684;23.322;2023-02-11T03:26:32;96890.31;;;-3.64;100.00
22255;BME280;11296;42.684;23.322;2023-02-11T03:29:35;96806.69;;;-4.23;100.00
22255;BME280;11296;42.684;23.322;2023-02-11T03:34:45;96891.66;;;-3.70;100.00
22255;BME280;11296;42.684;23.322;2023-02-11T06:27:26;96819.13;;;-4.80;100.00
22255;BME280;11296;42.684;23.322;2023-02-11T06:30:10;96829.44;;;-4.63;100.00
22255;BME280;11296;42.684;23.322;2023-02-11T06:32:39;96874.22;;;-4.35;100.00
22255;BME280;11296;42.684;23.322;2023-02-11T06:35:13;96850.81;;;-4.28;100.00
22255;BME280;11296;42.684;23.322;2023-02-11T06:37:42;96851.91;;;-4.17;100.00
22255;BME280;11296;42.684;23.322;2023-02-11T06:40:21;96893.63;;;-3.80;100.00
22255;BME280;11296;42.684;23.322;2023-02-11T06:42:47;96858.03;;;-3.89;100.00
22255;BME280;11296;42.684;23.322;2023-02-11T06:45:14;96832.75;;;-4.06;100.00
22255;BME280;11296;42.684;23.322;2023-02-11T06:47:49;96853.31;;;-3.96;100.00
22255;BME280;11296;42.684;23.322;2023-02-11T06:50:15;96860.31;;;-4.12;100.00
22255;BME280;11296;42.684;23.322;2023-02-11T06:52:42;96886.50;;;-3.91;100.00
22255;BME280;11296;42.684;23.322;2023-02-11T06:55:16;96845.53;;;-4.28;100.00
22255;BME280;11296;42.684;23.322;2023-02-11T06:57:43;96858.34;;;-4.03;100.00
22255;BME280;11296;42.684;23.322;2023-02-11T07:00:12;96823.09;;;-4.14;100.00
22255;BME280;11296;42.684;23.322;2023-02-11T07:02:50;96829.22;;;-3.98;100.00
22255;BME280;11296;42.684;23.322;2023-02-11T07:05:16;96804.50;;;-4.09;100.00
22255;BME280;11296;42.684;23.322;2023-02-11T07:07:42;96831.75;;;-3.77;100.00
22255;BME280;11296;42.684;23.322;2023-02-11T07:16:55;96875.78;;;-3.22;100.00
22255;BME280;11296;42.684;23.322;2023-02-11T07:19:51;96844.66;;;-3.32;100.00
22255;BME280;11296;42.684;23.322;2023-02-11T07:22:25;96871.97;;;-2.97;100.00
22255;BME280;11296;42.684;23.322;2023-02-11T07:25:01;96802.91;;;-3.34;100.00
22255;BME280;11296;42.684;23.322;2023-02-11T07:39:35;96831.69;;;-2.70;100.00
22255;BME280;11296;42.684;23.322;2023-02-11T07:42:04;96822.78;;;-2.65;100.00
22255;BME280;11296;42.684;23.322;2023-02-11T07:44:43;96852.19;;;-2.48;100.00
22255;BME280;11296;42.684;23.322;2023-02-11T07:47:09;96846.34;;;-2.41;100.00
22255;BME280;11296;42.684;23.322;2023-02-11T07:49:46;96824.66;;;-2.35;100.00
22255;BME280;11296;42.684;23.322;2023-02-11T07:52:12;96820.41;;;-2.23;100.00
22255;BME280;11296;42.684;23.322;2023-02-11T07:54:39;96774.94;;;-2.67;100.00
22255;BME280;11296;42.684;23.322;2023-02-11T07:57:05;96750.88;;;-2.66;100.00
22255;BME280;11296;42.684;23.322;2023-02-11T07:59:34;96817.00;;;-2.24;100.00
22255;BME280;11296;42.684;23.322;2023-02-11T08:02:05;96801.28;;;-2.20;100.00
22255;BME280;11296;42.684;23.322;2023-02-11T08:04:36;96813.09;;;-2.14;100.00
22255;BME280;11296;42.684;23.322;2023-02-11T08:07:05;96785.97;;;-2.31;100.00
22255;BME280;11296;42.684;23.322;2023-02-11T08:09:33;96791.06;;;-2.22;100.00
22255;BME280;11296;42.684;23.322;2023-02-11T08:12:12;96768.81;;;-2.40;100.00
22255;BME280;11296;42.684;23.322;2023-02-11T08:14:41;96769.25;;;-2.22;100.00
22255;BME280;11296;42.684;23.322;2023-02-11T08:17:10;96792.16;;;-2.07;100.00
22255;BME280;11296;42.684;23.322;2023-02-11T08:20:15;96838.09;;;-1.74;100.00
22255;BME280;11296;42.684;23.322;2023-02-11T08:22:51;96796.13;;;-1.98;100.00
22255;BME280;11296;42.684;23.322;2023-02-11T08:25:23;96793.78;;;-2.03;100.00
22255;BME280;11296;42.684;23.322;2023-02-11T08:27:51;96744.47;;;-2.18;100.00
22255;BME280;11296;42.684;23.322;2023-02-11T08:30:17;96843.06;;;-1.72;100.00
22255;BME280;11296;42.684;23.322;2023-02-11T08:32:45;96792.59;;;-2.05;100.00
22255;BME280;11296;42.684;23.322;2023-02-11T08:35:12;96794.34;;;-1.94;100.00
22255;BME280;11296;42.684;23.322;2023-02-11T08:37:38;96794.28;;;-1.78;100.00
22255;BME280;11296;42.684;23.322;2023-02-11T08:40:05;96793.75;;;-1.87;100.00
22255;BME280;11296;42.684;23.322;2023-02-11T08:42:31;96807.34;;;-1.85;100.00
22255;BME280;11296;42.684;23.322;2023-02-11T08:45:29;96831.16;;;-1.47;100.00
22255;BME280;11296;42.684;23.322;2023-02-11T08:47:57;96791.78;;;-1.56;100.00
22255;BME280;11296;42.684;23.322;2023-02-11T08:50:25;96805.59;;;-1.43;100.00
22255;BME280;11296;42.684;23.322;2023-02-11T08:52:52;96786.44;;;-1.59;100.00
22255;BME280;11296;42.684;23.322;2023-02-11T08:55:18;96754.97;;;-1.48;100.00
22255;BME280;11296;42.684;23.322;2023-02-11T08:57:47;96814.69;;;-1.02;100.00
22255;BME280;11296;42.684;23.322;2023-02-11T09:00:16;96801.84;;;-1.04;100.00
22255;BME280;11296;42.684;23.322;2023-02-11T09:02:41;96799.34;;;-1.16;100.00
22255;BME280;11296;42.684;23.322;2023-02-11T09:05:09;96766.69;;;-1.27;100.00
22255;BME280;11296;42.684;23.322;2023-02-11T09:07:34;96771.53;;;-1.10;100.00
22255;BME280;11296;42.684;23.322;2023-02-11T09:10:00;96804.94;;;-0.56;100.00
22255;BME280;11296;42.684;23.322;2023-02-11T09:12:26;96773.91;;;-0.14;97.56
22255;BME280;11296;42.684;23.322;2023-02-11T09:14:53;96780.41;;;0.77;93.81
22255;BME280;11296;42.684;23.322;2023-02-11T09:17:18;96788.63;;;1.39;86.11
22255;BME280;11296;42.684;23.322;2023-02-11T09:19:45;96756.94;;;2.83;80.34
22255;BME280;11296;42.684;23.322;2023-02-11T09:22:11;96801.81;;;4.71;72.66
22255;BME280;11296;42.684;23.322;2023-02-11T09:24:37;96754.31;;;5.28;65.25
22255;BME280;11296;42.684;23.322;2023-02-11T09:27:06;96814.22;;;6.26;59.85
22255;BME280;11296;42.684;23.322;2023-02-11T09:29:38;96753.56;;;6.91;56.38
22255;BME280;11296;42.684;23.322;2023-02-11T09:32:04;96795.56;;;8.04;52.22
22255;BME280;11296;42.684;23.322;2023-02-11T09:34:30;96802.44;;;8.71;48.61
22255;BME280;11296;42.684;23.322;2023-02-11T09:36:56;96797.56;;;9.05;47.02
22255;BME280;11296;42.684;23.322;2023-02-11T09:39:23;96811.03;;;8.82;46.67
22255;BME280;11296;42.684;23.322;2023-02-11T09:44:25;96745.84;;;7.53;46.79
22255;BME280;11296;42.684;23.322;2023-02-11T09:46:59;96745.84;;;6.96;47.18
22255;BME280;11296;42.684;23.322;2023-02-11T09:49:49;96785.81;;;7.90;46.22
22255;BME280;11296;42.684;23.322;2023-02-11T09:54:53;96766.41;;;8.52;44.50
22255;BME280;11296;42.684;23.322;2023-02-11T09:57:24;96734.09;;;8.95;43.63
22255;BME280;11296;42.684;23.322;2023-02-11T09:59:51;96749.41;;;8.98;43.16
22255;BME280;11296;42.684;23.322;2023-02-11T10:02:28;96743.94;;;9.37;42.42
22255;BME280;11296;42.684;23.322;2023-02-11T10:07:44;96700.81;;;8.92;41.18
22255;BME280;11296;42.684;23.322;2023-02-11T10:15:46;96702.56;;;9.51;39.63
22255;BME280;11296;42.684;23.322;2023-02-11T10:21:18;96713.66;;;10.46;39.81
22255;BME280;11296;42.684;23.322;2023-02-11T10:23:51;96674.22;;;11.06;38.43
22255;BME280;11296;42.684;23.322;2023-02-11T10:26:20;96700.31;;;11.09;37.28
22255;BME280;11296;42.684;23.322;2023-02-11T10:28:48;96688.69;;;10.58;37.39
22255;BME280;11296;42.684;23.322;2023-02-11T10:31:23;96662.06;;;10.35;38.21
22255;BME280;11296;42.684;23.322;2023-02-11T10:34:08;96673.00;;;10.69;37.72
22255;BME280;11296;42.684;23.322;2023-02-11T10:36:40;96647.41;;;11.28;36.54
22255;BME280;11296;42.684;23.322;2023-02-11T10:39:15;96670.91;;;11.27;36.77
22255;BME280;11296;42.684;23.322;2023-02-11T10:41:44;96606.13;;;11.43;36.57
22255;BME280;11296;42.684;23.322;2023-02-11T10:47:10;96608.31;;;11.70;35.07
22255;BME280;11296;42.684;23.322;2023-02-11T10:52:31;96611.38;;;11.94;34.28
22255;BME280;11296;42.684;23.322;2023-02-11T10:57:42;96596.22;;;11.87;34.45
22255;BME280;11296;42.684;23.322;2023-02-11T11:00:37;96611.00;;;10.60;35.53
22255;BME280;11296;42.684;23.322;2023-02-11T11:03:22;96596.81;;;11.57;34.89
22255;BME280;11296;42.684;23.322;2023-02-11T11:06:03;96594.91;;;12.65;33.69
22255;BME280;11296;42.684;23.322;2023-02-11T11:08:42;96618.38;;;12.78;33.38
22255;BME280;11296;42.684;23.322;2023-02-11T11:11:12;96593.88;;;11.04;35.02
22255;BME280;11296;42.684;23.322;2023-02-11T11:13:45;96587.75;;;10.66;35.80
22255;BME280;11296;42.684;23.322;2023-02-11T11:16:55;96601.47;;;11.90;35.02
22255;BME280;11296;42.684;23.322;2023-02-11T11:19:25;96606.31;;;11.49;34.92
22255;BME280;11296;42.684;23.322;2023-02-11T11:21:52;96595.25;;;11.34;34.12
22255;BME280;11296;42.684;23.322;2023-02-11T11:24:28;96558.56;;;12.05;33.21
22255;BME280;11296;42.684;23.322;2023-02-11T11:27:01;96569.09;;;12.95;32.29
22255;BME280;11296;42.684;23.322;2023-02-11T11:29:52;96583.81;;;13.52;32.14
22255;BME280;11296;42.684;23.322;2023-02-11T11:32:26;96581.06;;;10.58;35.30
22255;BME280;11296;42.684;23.322;2023-02-11T11:34:59;96558.03;;;10.03;35.25
22255;BME280;11296;42.684;23.322;2023-02-11T11:37:35;96560.19;;;11.47;34.50
22255;BME280;11296;42.684;23.322;2023-02-11T11:40:07;96525.19;;;9.83;34.62
22255;BME280;11296;42.684;23.322;2023-02-11T11:42:42;96574.53;;;11.44;33.91
22255;BME280;11296;42.684;23.322;2023-02-11T11:48:16;96533.28;;;14.03;30.88
22255;BME280;11296;42.684;23.322;2023-02-11T11:50:52;96541.25;;;12.15;32.16
22255;BME280;11296;42.684;23.322;2023-02-11T11:55:59;96556.75;;;12.54;33.65
22255;BME280;11296;42.684;23.322;2023-02-11T11:58:27;96499.88;;;12.09;33.42
22255;BME280;11296;42.684;23.322;2023-02-11T12:01:13;96550.88;;;12.87;33.11
22255;BME280;11296;42.684;23.322;2023-02-11T12:07:10;96545.22;;;13.70;31.73
22255;BME280;11296;42.684;23.322;2023-02-11T12:18:13;96492.09;;;12.42;32.16
22255;BME280;11296;42.684;23.322;2023-02-11T12:20:54;96532.59;;;13.00;30.25
22255;BME280;11296;42.684;23.322;2023-02-11T12:26:48;96488.84;;;13.86;29.51
22255;BME280;11296;42.684;23.322;2023-02-11T12:30:08;96507.59;;;14.59;29.10
22255;BME280;11296;42.684;23.322;2023-02-11T12:38:11;96505.97;;;13.20;29.75
22255;BME280;11296;42.684;23.322;2023-02-11T12:51:24;96480.00;;;12.55;31.04
22255;BME280;11296;42.684;23.322;2023-02-11T12:54:28;96482.88;;;13.37;30.96
22255;BME280;11296;42.684;23.322;2023-02-11T12:57:19;96450.78;;;13.99;29.99
22255;BME280;11296;42.684;23.322;2023-02-11T13:05:55;96424.16;;;12.04;31.94
22255;BME280;11296;42.684;23.322;2023-02-11T13:08:30;96458.13;;;11.49;32.68
22255;BME280;11296;42.684;23.322;2023-02-11T13:11:11;96472.91;;;11.66;32.56
22255;BME280;11296;42.684;23.322;2023-02-11T13:13:52;96427.13;;;12.36;31.85
22255;BME280;11296;42.684;23.322;2023-02-11T13:22:11;96450.34;;;15.22;28.76
22255;BME280;11296;42.684;23.322;2023-02-11T13:24:41;96448.75;;;13.67;30.10
22255;BME280;11296;42.684;23.322;2023-02-11T13:35:34;96445.19;;;13.24;30.20
22255;BME280;11296;42.684;23.322;2023-02-11T13:38:05;96400.28;;;12.91;30.12
22255;BME280;11296;42.684;23.322;2023-02-11T13:40:35;96444.59;;;13.48;29.82
22255;BME280;11296;42.684;23.322;2023-02-11T13:43:03;96426.84;;;13.37;29.59
22255;BME280;11296;42.684;23.322;2023-02-11T13:45:37;96386.22;;;11.46;30.78
22255;BME280;11296;42.684;23.322;2023-02-11T13:48:12;96430.34;;;9.83;32.15
22255;BME280;11296;42.684;23.322;2023-02-11T13:50:45;96383.28;;;7.86;33.99
22255;BME280;11296;42.684;23.322;2023-02-11T13:53:13;96374.19;;;6.66;35.56
22255;BME280;11296;42.684;23.322;2023-02-11T13:55:44;96412.31;;;6.70;35.69
22255;BME280;11296;42.684;23.322;2023-02-11T14:14:20;96396.41;;;9.89;33.22
22255;BME280;11296;42.684;23.322;2023-02-11T14:19:30;96427.81;;;10.42;32.76
22255;BME280;11296;42.684;23.322;2023-02-11T14:22:25;96364.59;;;10.00;32.81
22255;BME280;11296;42.684;23.322;2023-02-11T14:24:55;96394.25;;;10.34;33.17
22255;BME280;11296;42.684;23.322;2023-02-11T14:27:42;96393.34;;;10.15;33.18
22255;BME280;11296;42.684;23.322;2023-02-11T14:30:44;96371.41;;;10.51;33.10
22255;BME280;11296;42.684;23.322;2023-02-11T14:39:28;96382.81;;;10.68;33.83
22255;BME280;11296;42.684;23.322;2023-02-11T14:42:03;96381.38;;;11.10;33.23
22255;BME280;11296;42.684;23.322;2023-02-11T14:44:30;96386.06;;;11.18;33.26
22255;BME280;11296;42.684;23.322;2023-02-11T14:46:57;96380.34;;;11.60;32.92
22255;BME280;11296;42.684;23.322;2023-02-11T14:49:35;96361.25;;;9.58;34.18
22255;BME280;11296;42.684;23.322;2023-02-11T14:52:07;96407.38;;;9.82;34.51
22255;BME280;11296;42.684;23.322;2023-02-11T14:54:43;96400.16;;;8.96;35.76
22255;BME280;11296;42.684;23.322;2023-02-11T14:57:14;96393.09;;;8.25;36.79
22255;BME280;11296;42.684;23.322;2023-02-11T14:59:59;96400.91;;;7.48;38.32
22255;BME280;11296;42.684;23.322;2023-02-11T15:02:37;96352.47;;;6.84;39.12
22255;BME280;11296;42.684;23.322;2023-02-11T15:05:21;96370.91;;;6.35;40.00
22255;BME280;11296;42.684;23.322;2023-02-11T15:07:55;96364.63;;;5.99;40.56
22255;BME280;11296;42.684;23.322;2023-02-11T15:12:55;96349.28;;;5.50;41.53
22255;BME280;11296;42.684;23.322;2023-02-11T15:15:22;96349.44;;;5.36;41.71
22255;BME280;11296;42.684;23.322;2023-02-11T15:17:48;96370.88;;;5.59;42.05
22255;BME280;11296;42.684;23.322;2023-02-11T15:20:19;96339.63;;;5.29;42.36
22255;BME280;11296;42.684;23.322;2023-02-11T15:22:52;96368.66;;;5.23;42.50
22255;BME280;11296;42.684;23.322;2023-02-11T15:25:20;96326.53;;;4.78;43.10
22255;BME280;11296;42.684;23.322;2023-02-11T15:27:52;96372.06;;;4.94;43.18
22255;BME280;11296;42.684;23.322;2023-02-11T15:32:57;96340.41;;;4.62;44.14
22255;BME280;11296;42.684;23.322;2023-02-11T15:35:26;96369.19;;;4.78;43.90
22255;BME280;11296;42.684;23.322;2023-02-11T15:37:54;96371.75;;;4.85;44.72
22255;BME280;11296;42.684;23.322;2023-02-11T15:40:25;96335.63;;;4.46;44.64
22255;BME280;11296;42.684;23.322;2023-02-11T15:45:28;96350.56;;;4.37;45.03
22255;BME280;11296;42.684;23.322;2023-02-11T15:50:28;96368.34;;;4.03;46.04
22255;BME280;11296;42.684;23.322;2023-02-11T15:52:56;96356.66;;;3.90;46.61
22255;BME280;11296;42.684;23.322;2023-02-11T15:55:23;96339.31;;;3.67;47.11
22255;BME280;11296;42.684;23.322;2023-02-11T15:57:53;96343.59;;;3.51;47.73
22255;BME280;11296;42.684;23.322;2023-02-11T16:00:23;96339.44;;;3.46;47.97
22255;BME280;11296;42.684;23.322;2023-02-11T16:02:51;96329.00;;;3.15;48.74
22255;BME280;11296;42.684;23.322;2023-02-11T16:05:32;96406.63;;;3.64;49.15
22255;BME280;11296;42.684;23.322;2023-02-11T16:07:59;96365.00;;;3.26;49.35
22255;BME280;11296;42.684;23.322;2023-02-11T16:10:30;96343.78;;;3.19;49.50
22255;BME280;11296;42.684;23.322;2023-02-11T16:18:19;96336.31;;;2.93;51.25
22255;BME280;11296;42.684;23.322;2023-02-11T16:20:47;96368.88;;;3.15;51.55
22255;BME280;11296;42.684;23.322;2023-02-11T16:23:21;96347.75;;;2.79;51.10
22255;BME280;11296;42.684;23.322;2023-02-11T16:25:50;96321.97;;;2.66;51.71
22255;BME280;11296;42.684;23.322;2023-02-11T16:28:19;96352.63;;;2.84;51.85
22255;BME280;11296;42.684;23.322;2023-02-11T16:30:45;96358.31;;;2.86;51.99
22255;BME280;11296;42.684;23.322;2023-02-11T16:33:15;96407.59;;;3.19;51.65
22255;BME280;11296;42.684;23.322;2023-02-11T16:35:41;96358.31;;;2.90;52.28
22255;BME280;11296;42.684;23.322;2023-02-11T16:38:09;96313.69;;;2.46;51.95
22255;BME280;11296;42.684;23.322;2023-02-11T16:40:36;96346.66;;;2.59;52.46
22255;BME280;11296;42.684;23.322;2023-02-11T16:43:02;96347.06;;;2.51;52.50
22255;BME280;11296;42.684;23.322;2023-02-11T16:45:27;96349.72;;;2.44;52.83
22255;BME280;11296;42.684;23.322;2023-02-11T16:47:53;96348.97;;;2.47;52.89
22255;BME280;11296;42.684;23.322;2023-02-11T16:50:23;96331.50;;;2.39;53.33
22255;BME280;11296;42.684;23.322;2023-02-11T16:52:49;96381.19;;;2.52;53.80
22255;BME280;11296;42.684;23.322;2023-02-11T16:55:17;96331.16;;;2.22;53.79
22255;BME280;11296;42.684;23.322;2023-02-11T16:57:43;96336.47;;;2.12;52.99
22255;BME280;11296;42.684;23.322;2023-02-11T17:00:17;96394.09;;;2.47;53.33
22255;BME280;11296;42.684;23.322;2023-02-11T17:02:43;96361.13;;;2.27;53.39
22255;BME280;11296;42.684;23.322;2023-02-11T17:05:16;96352.78;;;2.17;54.11
22255;BME280;11296;42.684;23.322;2023-02-11T17:07:45;96347.88;;;2.09;55.03
22255;BME280;11296;42.684;23.322;2023-02-11T17:10:19;96342.56;;;2.12;54.75
22255;BME280;11296;42.684;23.322;2023-02-11T17:12:45;96373.25;;;2.17;55.56
22255;BME280;11296;42.684;23.322;2023-02-11T17:15:22;96359.25;;;2.13;56.08
22255;BME280;11296;42.684;23.322;2023-02-11T17:17:50;96379.72;;;2.12;55.98
22255;BME280;11296;42.684;23.322;2023-02-11T17:20:15;96331.19;;;1.80;56.68
22255;BME280;11296;42.684;23.322;2023-02-11T17:22:41;96331.59;;;1.89;56.79
22255;BME280;11296;42.684;23.322;2023-02-11T17:25:07;96332.69;;;1.81;56.79
22255;BME280;11296;42.684;23.322;2023-02-11T17:27:33;96335.00;;;1.83;57.06
22255;BME280;11296;42.684;23.322;2023-02-11T17:29:59;96399.44;;;2.11;57.44
22255;BME280;11296;42.684;23.322;2023-02-11T17:32:25;96328.53;;;1.56;57.39
22255;BME280;11296;42.684;23.322;2023-02-11T17:34:52;96365.28;;;1.82;57.72
22255;BME280;11296;42.684;23.322;2023-02-11T17:37:17;96349.00;;;1.69;57.62
22255;BME280;11296;42.684;23.322;2023-02-11T17:39:43;96341.78;;;1.70;57.77
22255;BME280;11296;42.684;23.322;2023-02-11T17:42:09;96338.38;;;1.69;57.53
22255;BME280;11296;42.684;23.322;2023-02-11T17:44:36;96342.53;;;1.63;57.93
22255;BME280;11296;42.684;23.322;2023-02-11T17:47:02;96376.69;;;1.89;58.21
22255;BME280;11296;42.684;23.322;2023-02-11T17:49:28;96385.38;;;1.76;58.33
22255;BME280;11296;42.684;23.322;2023-02-11T17:51:54;96357.69;;;1.70;58.45
22255;BME280;11296;42.684;23.322;2023-02-11T17:54:19;96358.81;;;1.62;58.31
22255;BME280;11296;42.684;23.322;2023-02-11T17:56:45;96399.00;;;1.74;58.11
22255;BME280;11296;42.684;23.322;2023-02-11T17:59:12;96390.66;;;1.65;57.68
22255;BME280;11296;42.684;23.322;2023-02-11T18:01:41;96371.31;;;1.50;58.13
22255;BME280;11296;42.684;23.322;2023-02-11T18:04:11;96379.66;;;1.49;59.32
22255;BME280;11296;42.684;23.322;2023-02-11T18:06:37;96394.09;;;1.69;59.75
22255;BME280;11296;42.684;23.322;2023-02-11T18:09:05;96395.94;;;1.51;59.27
22255;BME280;11296;42.684;23.322;2023-02-11T18:11:33;96357.66;;;1.38;59.85
22255;BME280;11296;42.684;23.322;2023-02-11T18:14:02;96380.34;;;1.39;59.67
22255;BME280;11296;42.684;23.322;2023-02-11T18:16:29;96351.53;;;1.20;58.77
22255;BME280;11296;42.684;23.322;2023-02-11T18:18:56;96380.03;;;1.51;58.85
22255;BME280;11296;42.684;23.322;2023-02-11T18:21:23;96337.94;;;1.25;59.21
22255;BME280;11296;42.684;23.322;2023-02-11T18:23:49;96368.25;;;1.38;58.38
22255;BME280;11296;42.684;23.322;2023-02-11T18:26:17;96385.72;;;1.53;58.06
22255;BME280;11296;42.684;23.322;2023-02-11T18:28:43;96403.16;;;1.65;58.23
22255;BME280;11296;42.684;23.322;2023-02-11T18:31:10;96406.16;;;1.63;58.20
22255;BME280;11296;42.684;23.322;2023-02-11T18:33:36;96351.97;;;1.36;58.05
22255;BME280;11296;42.684;23.322;2023-02-11T18:36:14;96359.16;;;1.35;58.02
22255;BME280;11296;42.684;23.322;2023-02-11T18:38:41;96356.16;;;1.47;58.20
22255;BME280;11296;42.684;23.322;2023-02-11T18:41:14;96318.97;;;1.16;57.98
22255;BME280;11296;42.684;23.322;2023-02-11T18:43:40;96378.53;;;1.61;58.43
22255;BME280;11296;42.684;23.322;2023-02-11T18:46:10;96347.00;;;1.24;58.19
22255;BME280;11296;42.684;23.322;2023-02-11T18:48:36;96338.69;;;1.29;58.58
22255;BME280;11296;42.684;23.322;2023-02-11T18:51:07;96340.97;;;1.27;58.41